sensor_id;sensor_type;location;lat;lon;timestamp;temperature;humidity
13328;DHT22;6733;51.044;3.746;2023-02-01T00:00:24;8.10;99.90
13328;DHT22;6733;51.044;3.746;2023-02-01T00:02:50;8.10;99.90
13328;DHT22;6733;51.044;3.746;2023-02-01T00:05:16;8.10;99.90
13328;DHT22;6733;51.044;3.746;2023-02-01T00:07:43;8.10;99.90
13328;DHT22;6733;51.044;3.746;2023-02-01T00:10:12;8.00;99.90
13328;DHT22;6733;51.044;3.746;2023-02-01T00:12:38;8.00;99.90
13328;DHT22;6733;51.044;3.746;2023-02-01T00:15:05;7.90;99.90
13328;DHT22;6733;51.044;3.746;2023-02-01T00:17:31;7.90;99.90
13328;DHT22;6733;51.044;3.746;2023-02-01T00:19:57;7.90;99.90
13328;DHT22;6733;51.044;3.746;2023-02-01T00:22:23;7.80;99.90
13328;DHT22;6733;51.044;3.746;2023-02-01T00:24:49;7.80;99.90
13328;DHT22;6733;51.044;3.746;2023-02-01T00:27:15;7.80;99.90
13328;DHT22;6733;51.044;3.746;2023-02-01T00:29:46;7.70;99.90
13328;DHT22;6733;51.044;3.746;2023-02-01T00:32:12;7.70;99.90
13328;DHT22;6733;51.044;3.746;2023-02-01T00:34:38;7.60;99.90
13328;DHT22;6733;51.044;3.746;2023-02-01T00:37:04;7.50;99.90
13328;DHT22;6733;51.044;3.746;2023-02-01T00:39:30;7.50;99.90
13328;DHT22;6733;51.044;3.746;2023-02-01T00:41:56;7.40;99.90
13328;DHT22;6733;51.044;3.746;2023-02-01T00:44:22;7.40;99.90
13328;DHT22;6733;51.044;3.746;2023-02-01T00:46:48;7.40;99.90
13328;DHT22;6733;51.044;3.746;2023-02-01T00:49:14;7.30;99.90
13328;DHT22;6733;51.044;3.746;2023-02-01T00:51:40;7.30;99.90
13328;DHT22;6733;51.044;3.746;2023-02-01T00:54:06;7.20;99.90
13328;DHT22;6733;51.044;3.746;2023-02-01T00:56:32;7.20;99.90
13328;DHT22;6733;51.044;3.746;2023-02-01T00:58:59;7.20;99.90
13328;DHT22;6733;51.044;3.746;2023-02-01T01:01:26;7.10;99.90
13328;DHT22;6733;51.044;3.746;2023-02-01T01:03:55;7.10;99.90
13328;DHT22;6733;51.044;3.746;2023-02-01T01:06:39;7.10;99.90
13328;DHT22;6733;51.044;3.746;2023-02-01T01:09:07;7.10;99.90
13328;DHT22;6733;51.044;3.746;2023-02-01T01:11:35;7.10;99.90
13328;DHT22;6733;51.044;3.746;2023-02-01T01:14:04;7.10;99.90
13328;DHT22;6733;51.044;3.746;2023-02-01T01:16:31;7.00;99.90
13328;DHT22;6733;51.044;3.746;2023-02-01T01:18:58;7.00;99.90
13328;DHT22;6733;51.044;3.746;2023-02-01T01:21:25;7.00;99.90
13328;DHT22;6733;51.044;3.746;2023-02-01T01:23:51;6.90;99.90
13328;DHT22;6733;51.044;3.746;2023-02-01T01:26:28;6.90;99.90
13328;DHT22;6733;51.044;3.746;2023-02-01T01:28:59;6.90;99.90
13328;DHT22;6733;51.044;3.746;2023-02-01T01:31:25;6.90;99.90
13328;DHT22;6733;51.044;3.746;2023-02-01T01:33:53;6.80;99.90
13328;DHT22;6733;51.044;3.746;2023-02-01T01:36:20;6.90;99.90
13328;DHT22;6733;51.044;3.746;2023-02-01T01:38:46;6.80;99.90
13328;DHT22;6733;51.044;3.746;2023-02-01T01:41:17;6.80;99.90
13328;DHT22;6733;51.044;3.746;2023-02-01T01:46:33;6.80;99.90
13328;DHT22;6733;51.044;3.746;2023-02-01T01:49:11;6.80;99.90
13328;DHT22;6733;51.044;3.746;2023-02-01T01:54:14;6.80;99.90
13328;DHT22;6733;51.044;3.746;2023-02-01T01:56:44;6.80;99.90
13328;DHT22;6733;51.044;3.746;2023-02-01T01:59:11;6.70;99.90
13328;DHT22;6733;51.044;3.746;2023-02-01T02:01:38;6.70;99.90
13328;DHT22;6733;51.044;3.746;2023-02-01T02:04:05;6.70;99.90
13328;DHT22;6733;51.044;3.746;2023-02-01T02:07:08;6.70;99.90
13328;DHT22;6733;51.044;3.746;2023-02-01T02:09:35;6.70;99.90
13328;DHT22;6733;51.044;3.746;2023-02-01T02:12:01;6.70;99.90
13328;DHT22;6733;51.044;3.746;2023-02-01T02:14:28;6.60;99.90
13328;DHT22;6733;51.044;3.746;2023-02-01T02:28:37;6.60;99.90
13328;DHT22;6733;51.044;3.746;2023-02-01T02:37:43;6.50;99.90
13328;DHT22;6733;51.044;3.746;2023-02-01T02:40:29;6.60;99.90
13328;DHT22;6733;51.044;3.746;2023-02-01T02:46:16;6.60;99.90
13328;DHT22;6733;51.044;3.746;2023-02-01T02:49:15;6.60;99.90
13328;DHT22;6733;51.044;3.746;2023-02-01T02:51:54;6.70;99.90
13328;DHT22;6733;51.044;3.746;2023-02-01T02:54:45;6.60;99.90
13328;DHT22;6733;51.044;3.746;2023-02-01T02:57:36;6.60;99.90
13328;DHT22;6733;51.044;3.746;2023-02-01T03:00:22;6.60;99.90
13328;DHT22;6733;51.044;3.746;2023-02-01T03:03:09;6.60;99.90
13328;DHT22;6733;51.044;3.746;2023-02-01T03:05:54;6.60;99.90
13328;DHT22;6733;51.044;3.746;2023-02-01T03:08:22;6.60;99.90
13328;DHT22;6733;51.044;3.746;2023-02-01T03:16:30;6.60;99.90
13328;DHT22;6733;51.044;3.746;2023-02-01T03:19:01;6.60;99.90
13328;DHT22;6733;51.044;3.746;2023-02-01T03:21:36;6.70;99.90
13328;DHT22;6733;51.044;3.746;2023-02-01T03:24:11;6.70;99.90
13328;DHT22;6733;51.044;3.746;2023-02-01T03:26:42;6.60;99.90
13328;DHT22;6733;51.044;3.746;2023-02-01T03:29:13;6.70;99.90
13328;DHT22;6733;51.044;3.746;2023-02-01T03:31:41;6.70;99.90
13328;DHT22;6733;51.044;3.746;2023-02-01T03:34:07;6.70;99.90
13328;DHT22;6733;51.044;3.746;2023-02-01T03:36:46;6.70;99.90
13328;DHT22;6733;51.044;3.746;2023-02-01T03:39:19;6.70;99.90
13328;DHT22;6733;51.044;3.746;2023-02-01T03:41:53;6.80;99.90
13328;DHT22;6733;51.044;3.746;2023-02-01T03:47:26;6.80;99.90
13328;DHT22;6733;51.044;3.746;2023-02-01T03:49:56;6.70;99.90
13328;DHT22;6733;51.044;3.746;2023-02-01T03:52:33;6.70;99.90
13328;DHT22;6733;51.044;3.746;2023-02-01T03:55:02;6.70;99.90
13328;DHT22;6733;51.044;3.746;2023-02-01T03:57:34;6.70;99.90
13328;DHT22;6733;51.044;3.746;2023-02-01T04:00:20;6.60;99.90
13328;DHT22;6733;51.044;3.746;2023-02-01T04:02:48;6.60;99.90
13328;DHT22;6733;51.044;3.746;2023-02-01T04:05:14;6.50;99.90
13328;DHT22;6733;51.044;3.746;2023-02-01T04:07:41;6.50;99.90
13328;DHT22;6733;51.044;3.746;2023-02-01T04:10:07;6.50;99.90
13328;DHT22;6733;51.044;3.746;2023-02-01T04:12:33;6.40;99.90
13328;DHT22;6733;51.044;3.746;2023-02-01T04:15:00;6.40;99.90
13328;DHT22;6733;51.044;3.746;2023-02-01T04:17:26;6.40;99.90
13328;DHT22;6733;51.044;3.746;2023-02-01T04:19:52;6.40;99.90
13328;DHT22;6733;51.044;3.746;2023-02-01T04:22:18;6.40;99.90
13328;DHT22;6733;51.044;3.746;2023-02-01T04:24:44;6.40;99.90
13328;DHT22;6733;51.044;3.746;2023-02-01T04:27:10;6.30;99.90
13328;DHT22;6733;51.044;3.746;2023-02-01T04:29:36;6.30;99.90
13328;DHT22;6733;51.044;3.746;2023-02-01T04:32:03;6.30;99.90
13328;DHT22;6733;51.044;3.746;2023-02-01T04:34:29;6.30;99.90
13328;DHT22;6733;51.044;3.746;2023-02-01T04:36:55;6.30;99.90
13328;DHT22;6733;51.044;3.746;2023-02-01T04:39:21;6.20;99.90
13328;DHT22;6733;51.044;3.746;2023-02-01T04:41:47;6.20;99.90
13328;DHT22;6733;51.044;3.746;2023-02-01T04:44:15;6.30;99.90
13328;DHT22;6733;51.044;3.746;2023-02-01T04:46:42;6.20;99.90
13328;DHT22;6733;51.044;3.746;2023-02-01T04:49:10;6.20;99.90
13328;DHT22;6733;51.044;3.746;2023-02-01T04:51:36;6.30;99.90
13328;DHT22;6733;51.044;3.746;2023-02-01T04:54:03;6.30;99.90
13328;DHT22;6733;51.044;3.746;2023-02-01T04:56:29;6.30;99.90
13328;DHT22;6733;51.044;3.746;2023-02-01T04:58:55;6.30;99.90
13328;DHT22;6733;51.044;3.746;2023-02-01T05:01:22;6.30;99.90
13328;DHT22;6733;51.044;3.746;2023-02-01T05:03:48;6.30;99.90
13328;DHT22;6733;51.044;3.746;2023-02-01T05:06:14;6.20;99.90
13328;DHT22;6733;51.044;3.746;2023-02-01T05:08:40;6.20;99.90
13328;DHT22;6733;51.044;3.746;2023-02-01T05:11:07;6.10;99.90
13328;DHT22;6733;51.044;3.746;2023-02-01T05:13:53;6.20;99.90
13328;DHT22;6733;51.044;3.746;2023-02-01T05:16:19;6.20;99.90
13328;DHT22;6733;51.044;3.746;2023-02-01T05:18:45;6.20;99.90
13328;DHT22;6733;51.044;3.746;2023-02-01T05:21:11;6.30;99.90
13328;DHT22;6733;51.044;3.746;2023-02-01T05:23:37;6.30;99.90
13328;DHT22;6733;51.044;3.746;2023-02-01T05:26:24;6.30;99.90
13328;DHT22;6733;51.044;3.746;2023-02-01T05:28:51;6.30;99.90
13328;DHT22;6733;51.044;3.746;2023-02-01T05:31:17;6.20;99.90
13328;DHT22;6733;51.044;3.746;2023-02-01T05:33:43;6.20;99.90
13328;DHT22;6733;51.044;3.746;2023-02-01T05:36:09;6.20;99.90
13328;DHT22;6733;51.044;3.746;2023-02-01T05:38:35;6.20;99.90
13328;DHT22;6733;51.044;3.746;2023-02-01T05:41:02;6.20;99.90
13328;DHT22;6733;51.044;3.746;2023-02-01T05:43:28;6.10;99.90
13328;DHT22;6733;51.044;3.746;2023-02-01T05:45:54;6.10;99.90
13328;DHT22;6733;51.044;3.746;2023-02-01T05:48:20;6.10;99.90
13328;DHT22;6733;51.044;3.746;2023-02-01T05:50:46;6.10;99.90
13328;DHT22;6733;51.044;3.746;2023-02-01T05:53:12;6.00;99.90
13328;DHT22;6733;51.044;3.746;2023-02-01T05:55:39;6.00;99.90
13328;DHT22;6733;51.044;3.746;2023-02-01T05:58:05;6.00;99.90
13328;DHT22;6733;51.044;3.746;2023-02-01T06:00:31;6.00;99.90
13328;DHT22;6733;51.044;3.746;2023-02-01T06:02:58;6.00;99.90
13328;DHT22;6733;51.044;3.746;2023-02-01T06:05:24;6.00;99.90
13328;DHT22;6733;51.044;3.746;2023-02-01T06:07:50;6.00;99.90
13328;DHT22;6733;51.044;3.746;2023-02-01T06:10:17;6.00;99.90
13328;DHT22;6733;51.044;3.746;2023-02-01T06:12:44;5.90;99.90
13328;DHT22;6733;51.044;3.746;2023-02-01T06:15:11;6.00;99.90
13328;DHT22;6733;51.044;3.746;2023-02-01T06:17:38;6.00;99.90
13328;DHT22;6733;51.044;3.746;2023-02-01T06:20:09;6.00;99.90
13328;DHT22;6733;51.044;3.746;2023-02-01T06:22:39;6.00;99.90
13328;DHT22;6733;51.044;3.746;2023-02-01T06:25:08;6.00;99.90
13328;DHT22;6733;51.044;3.746;2023-02-01T06:27:35;6.00;99.90
13328;DHT22;6733;51.044;3.746;2023-02-01T06:30:03;6.00;99.90
13328;DHT22;6733;51.044;3.746;2023-02-01T06:32:30;5.90;99.90
13328;DHT22;6733;51.044;3.746;2023-02-01T06:34:56;6.00;99.90
13328;DHT22;6733;51.044;3.746;2023-02-01T06:37:23;5.90;99.90
13328;DHT22;6733;51.044;3.746;2023-02-01T06:39:51;5.90;99.90
13328;DHT22;6733;51.044;3.746;2023-02-01T06:42:17;5.90;99.90
13328;DHT22;6733;51.044;3.746;2023-02-01T06:44:43;6.00;99.90
13328;DHT22;6733;51.044;3.746;2023-02-01T06:47:09;6.00;99.90
13328;DHT22;6733;51.044;3.746;2023-02-01T06:49:36;5.90;99.90
13328;DHT22;6733;51.044;3.746;2023-02-01T06:52:02;5.90;99.90
13328;DHT22;6733;51.044;3.746;2023-02-01T06:54:28;5.90;99.90
13328;DHT22;6733;51.044;3.746;2023-02-01T06:56:58;5.90;99.90
13328;DHT22;6733;51.044;3.746;2023-02-01T06:59:24;5.90;99.90
13328;DHT22;6733;51.044;3.746;2023-02-01T07:01:50;5.90;99.90
13328;DHT22;6733;51.044;3.746;2023-02-01T07:04:16;5.90;99.90
13328;DHT22;6733;51.044;3.746;2023-02-01T07:06:42;6.00;99.90
13328;DHT22;6733;51.044;3.746;2023-02-01T07:09:09;6.00;99.90
13328;DHT22;6733;51.044;3.746;2023-02-01T07:11:35;6.00;99.90
13328;DHT22;6733;51.044;3.746;2023-02-01T07:14:03;6.00;99.90
13328;DHT22;6733;51.044;3.746;2023-02-01T07:16:29;6.00;99.90
13328;DHT22;6733;51.044;3.746;2023-02-01T07:18:57;6.00;99.90
13328;DHT22;6733;51.044;3.746;2023-02-01T07:21:23;6.00;99.90
13328;DHT22;6733;51.044;3.746;2023-02-01T07:23:49;6.00;99.90
13328;DHT22;6733;51.044;3.746;2023-02-01T07:26:15;6.00;99.90
13328;DHT22;6733;51.044;3.746;2023-02-01T07:28:42;6.00;99.90
13328;DHT22;6733;51.044;3.746;2023-02-01T07:31:11;6.10;99.90
13328;DHT22;6733;51.044;3.746;2023-02-01T07:33:37;6.00;99.90
13328;DHT22;6733;51.044;3.746;2023-02-01T07:36:05;6.10;99.90
13328;DHT22;6733;51.044;3.746;2023-02-01T07:38:32;6.10;99.90
13328;DHT22;6733;51.044;3.746;2023-02-01T07:41:00;6.10;99.90
13328;DHT22;6733;51.044;3.746;2023-02-01T07:43:28;6.10;99.90
13328;DHT22;6733;51.044;3.746;2023-02-01T07:45:54;6.10;99.90
13328;DHT22;6733;51.044;3.746;2023-02-01T07:48:22;6.20;99.90
13328;DHT22;6733;51.044;3.746;2023-02-01T07:50:57;6.30;99.90
13328;DHT22;6733;51.044;3.746;2023-02-01T07:53:24;6.40;99.90
13328;DHT22;6733;51.044;3.746;2023-02-01T07:55:50;6.50;99.90
13328;DHT22;6733;51.044;3.746;2023-02-01T07:58:16;6.50;99.90
13328;DHT22;6733;51.044;3.746;2023-02-01T08:00:43;6.60;99.90
13328;DHT22;6733;51.044;3.746;2023-02-01T08:03:29;6.60;99.90
13328;DHT22;6733;51.044;3.746;2023-02-01T08:05:55;6.40;99.90
13328;DHT22;6733;51.044;3.746;2023-02-01T08:08:22;6.20;99.90
13328;DHT22;6733;51.044;3.746;2023-02-01T08:10:48;6.10;99.90
13328;DHT22;6733;51.044;3.746;2023-02-01T08:13:14;6.00;99.90
13328;DHT22;6733;51.044;3.746;2023-02-01T08:15:40;6.00;99.90
13328;DHT22;6733;51.044;3.746;2023-02-01T08:18:06;6.00;99.90
13328;DHT22;6733;51.044;3.746;2023-02-01T08:20:33;6.10;99.90
13328;DHT22;6733;51.044;3.746;2023-02-01T08:23:02;6.10;99.90
13328;DHT22;6733;51.044;3.746;2023-02-01T08:25:28;6.10;99.90
13328;DHT22;6733;51.044;3.746;2023-02-01T08:27:54;6.20;99.90
13328;DHT22;6733;51.044;3.746;2023-02-01T08:30:21;6.20;99.90
13328;DHT22;6733;51.044;3.746;2023-02-01T08:32:47;6.20;99.90
13328;DHT22;6733;51.044;3.746;2023-02-01T08:35:14;6.20;99.90
13328;DHT22;6733;51.044;3.746;2023-02-01T08:37:40;6.20;99.90
13328;DHT22;6733;51.044;3.746;2023-02-01T08:40:06;6.20;99.90
13328;DHT22;6733;51.044;3.746;2023-02-01T08:42:33;6.30;99.90
13328;DHT22;6733;51.044;3.746;2023-02-01T08:45:28;6.30;99.90
13328;DHT22;6733;51.044;3.746;2023-02-01T08:47:56;6.30;99.90
13328;DHT22;6733;51.044;3.746;2023-02-01T08:50:22;6.40;99.90
13328;DHT22;6733;51.044;3.746;2023-02-01T08:52:49;6.50;99.90
13328;DHT22;6733;51.044;3.746;2023-02-01T08:55:16;6.50;99.90
13328;DHT22;6733;51.044;3.746;2023-02-01T08:57:42;6.60;99.90
13328;DHT22;6733;51.044;3.746;2023-02-01T09:00:12;6.70;99.90
13328;DHT22;6733;51.044;3.746;2023-02-01T09:02:38;6.80;99.90
13328;DHT22;6733;51.044;3.746;2023-02-01T09:05:05;6.90;99.90
13328;DHT22;6733;51.044;3.746;2023-02-01T09:07:33;7.00;99.90
13328;DHT22;6733;51.044;3.746;2023-02-01T09:10:00;7.00;99.90
13328;DHT22;6733;51.044;3.746;2023-02-01T09:12:28;7.10;99.90
13328;DHT22;6733;51.044;3.746;2023-02-01T09:14:56;7.20;99.90
13328;DHT22;6733;51.044;3.746;2023-02-01T09:17:22;7.30;99.90
13328;DHT22;6733;51.044;3.746;2023-02-01T09:19:48;7.40;99.90
13328;DHT22;6733;51.044;3.746;2023-02-01T09:22:15;7.40;99.90
13328;DHT22;6733;51.044;3.746;2023-02-01T09:24:42;7.50;99.90
13328;DHT22;6733;51.044;3.746;2023-02-01T09:27:08;7.50;99.90
13328;DHT22;6733;51.044;3.746;2023-02-01T09:29:34;7.50;99.90
13328;DHT22;6733;51.044;3.746;2023-02-01T09:32:01;7.60;99.90
13328;DHT22;6733;51.044;3.746;2023-02-01T09:34:27;7.60;99.90
13328;DHT22;6733;51.044;3.746;2023-02-01T09:36:53;7.70;99.90
13328;DHT22;6733;51.044;3.746;2023-02-01T09:39:19;7.70;99.90
13328;DHT22;6733;51.044;3.746;2023-02-01T09:41:59;7.70;99.90
13328;DHT22;6733;51.044;3.746;2023-02-01T09:47:16;7.80;99.90
13328;DHT22;6733;51.044;3.746;2023-02-01T09:49:51;7.90;99.90
13328;DHT22;6733;51.044;3.746;2023-02-01T09:52:29;7.90;99.90
13328;DHT22;6733;51.044;3.746;2023-02-01T09:55:01;8.00;99.90
13328;DHT22;6733;51.044;3.746;2023-02-01T09:57:48;8.10;99.90
13328;DHT22;6733;51.044;3.746;2023-02-01T10:00:25;8.10;99.90
13328;DHT22;6733;51.044;3.746;2023-02-01T10:02:54;8.20;99.90
13328;DHT22;6733;51.044;3.746;2023-02-01T10:06:01;8.20;99.90
13328;DHT22;6733;51.044;3.746;2023-02-01T10:09:07;8.30;99.90
13328;DHT22;6733;51.044;3.746;2023-02-01T10:17:06;8.30;99.90
13328;DHT22;6733;51.044;3.746;2023-02-01T10:22:43;8.40;99.90
13328;DHT22;6733;51.044;3.746;2023-02-01T10:27:38;8.50;99.90
13328;DHT22;6733;51.044;3.746;2023-02-01T10:30:19;8.50;99.90
13328;DHT22;6733;51.044;3.746;2023-02-01T10:32:48;8.50;99.90
13328;DHT22;6733;51.044;3.746;2023-02-01T10:35:18;8.60;99.90
13328;DHT22;6733;51.044;3.746;2023-02-01T10:37:47;8.70;99.90
13328;DHT22;6733;51.044;3.746;2023-02-01T10:40:22;8.80;99.90
13328;DHT22;6733;51.044;3.746;2023-02-01T10:42:56;8.80;99.90
13328;DHT22;6733;51.044;3.746;2023-02-01T10:45:26;8.80;99.90
13328;DHT22;6733;51.044;3.746;2023-02-01T10:47:55;8.90;99.90
13328;DHT22;6733;51.044;3.746;2023-02-01T10:50:38;8.90;99.90
13328;DHT22;6733;51.044;3.746;2023-02-01T10:53:41;8.90;99.90
13328;DHT22;6733;51.044;3.746;2023-02-01T10:56:10;9.00;99.90
13328;DHT22;6733;51.044;3.746;2023-02-01T10:58:45;9.30;99.90
13328;DHT22;6733;51.044;3.746;2023-02-01T11:01:20;9.40;99.90
13328;DHT22;6733;51.044;3.746;2023-02-01T11:03:53;9.80;99.90
13328;DHT22;6733;51.044;3.746;2023-02-01T11:06:33;9.90;99.90
13328;DHT22;6733;51.044;3.746;2023-02-01T11:11:56;9.60;99.90
13328;DHT22;6733;51.044;3.746;2023-02-01T11:14:27;9.80;99.90
13328;DHT22;6733;51.044;3.746;2023-02-01T11:17:21;9.80;99.90
13328;DHT22;6733;51.044;3.746;2023-02-01T11:20:01;10.20;99.90
13328;DHT22;6733;51.044;3.746;2023-02-01T11:22:28;10.40;99.90
13328;DHT22;6733;51.044;3.746;2023-02-01T11:24:56;10.30;99.90
13328;DHT22;6733;51.044;3.746;2023-02-01T11:27:24;10.30;99.90
13328;DHT22;6733;51.044;3.746;2023-02-01T11:29:53;10.40;99.90
13328;DHT22;6733;51.044;3.746;2023-02-01T11:32:23;10.60;99.90
13328;DHT22;6733;51.044;3.746;2023-02-01T11:34:54;10.60;99.90
13328;DHT22;6733;51.044;3.746;2023-02-01T11:40:02;10.40;99.90
13328;DHT22;6733;51.044;3.746;2023-02-01T11:42:30;10.20;99.90
13328;DHT22;6733;51.044;3.746;2023-02-01T11:45:19;10.20;99.90
13328;DHT22;6733;51.044;3.746;2023-02-01T11:47:45;10.40;99.90
13328;DHT22;6733;51.044;3.746;2023-02-01T11:50:22;10.30;99.90
13328;DHT22;6733;51.044;3.746;2023-02-01T12:07:27;10.30;99.90
13328;DHT22;6733;51.044;3.746;2023-02-01T12:10:01;10.50;99.90
13328;DHT22;6733;51.044;3.746;2023-02-01T12:15:57;10.70;99.90
13328;DHT22;6733;51.044;3.746;2023-02-01T12:26:57;11.10;99.90
13328;DHT22;6733;51.044;3.746;2023-02-01T12:29:53;11.30;99.90
13328;DHT22;6733;51.044;3.746;2023-02-01T12:32:33;11.40;99.90
13328;DHT22;6733;51.044;3.746;2023-02-01T12:37:54;11.10;99.90
13328;DHT22;6733;51.044;3.746;2023-02-01T12:40:36;10.90;99.90
13328;DHT22;6733;51.044;3.746;2023-02-01T12:43:36;10.80;99.90
13328;DHT22;6733;51.044;3.746;2023-02-01T12:46:11;10.60;99.90
13328;DHT22;6733;51.044;3.746;2023-02-01T12:48:52;10.40;99.90
13328;DHT22;6733;51.044;3.746;2023-02-01T12:51:26;10.40;99.90
13328;DHT22;6733;51.044;3.746;2023-02-01T12:54:00;10.60;99.90
13328;DHT22;6733;51.044;3.746;2023-02-01T12:56:46;10.70;99.90
13328;DHT22;6733;51.044;3.746;2023-02-01T12:59:21;10.70;99.90
13328;DHT22;6733;51.044;3.746;2023-02-01T13:02:02;10.70;99.90
13328;DHT22;6733;51.044;3.746;2023-02-01T13:04:38;10.70;99.90
13328;DHT22;6733;51.044;3.746;2023-02-01T13:07:20;10.80;99.90
13328;DHT22;6733;51.044;3.746;2023-02-01T13:09:57;10.80;99.90
13328;DHT22;6733;51.044;3.746;2023-02-01T13:12:30;10.90;99.90
13328;DHT22;6733;51.044;3.746;2023-02-01T13:17:31;11.20;99.90
13328;DHT22;6733;51.044;3.746;2023-02-01T13:20:31;10.90;99.90
13328;DHT22;6733;51.044;3.746;2023-02-01T13:23:09;11.00;99.90
13328;DHT22;6733;51.044;3.746;2023-02-01T13:25:47;11.00;99.90
13328;DHT22;6733;51.044;3.746;2023-02-01T13:28:36;10.90;99.90
13328;DHT22;6733;51.044;3.746;2023-02-01T13:39:05;11.20;99.90
13328;DHT22;6733;51.044;3.746;2023-02-01T13:41:51;11.10;99.90
13328;DHT22;6733;51.044;3.746;2023-02-01T13:46:59;11.00;99.90
13328;DHT22;6733;51.044;3.746;2023-02-01T13:49:30;11.00;99.90
13328;DHT22;6733;51.044;3.746;2023-02-01T13:51:58;10.90;99.90
13328;DHT22;6733;51.044;3.746;2023-02-01T13:54:38;10.80;99.90
13328;DHT22;6733;51.044;3.746;2023-02-01T13:57:13;10.70;99.90
13328;DHT22;6733;51.044;3.746;2023-02-01T14:05:11;10.50;99.90
13328;DHT22;6733;51.044;3.746;2023-02-01T14:21:29;10.30;99.90
13328;DHT22;6733;51.044;3.746;2023-02-01T14:27:34;10.20;99.90
13328;DHT22;6733;51.044;3.746;2023-02-01T14:29:35;10.20;99.90
13328;DHT22;6733;51.044;3.746;2023-02-01T14:32:16;10.20;99.90
13328;DHT22;6733;51.044;3.746;2023-02-01T14:37:26;10.10;99.90
13328;DHT22;6733;51.044;3.746;2023-02-01T14:42:38;10.00;99.90
13328;DHT22;6733;51.044;3.746;2023-02-01T14:58:42;9.80;99.90
13328;DHT22;6733;51.044;3.746;2023-02-01T15:01:37;9.80;99.90
13328;DHT22;6733;51.044;3.746;2023-02-01T15:04:17;9.70;99.90
13328;DHT22;6733;51.044;3.746;2023-02-01T15:06:57;9.70;99.90
13328;DHT22;6733;51.044;3.746;2023-02-01T15:09:28;9.70;99.90
13328;DHT22;6733;51.044;3.746;2023-02-01T15:17:21;9.60;99.90
13328;DHT22;6733;51.044;3.746;2023-02-01T15:19:59;9.60;99.90
13328;DHT22;6733;51.044;3.746;2023-02-01T15:22:27;9.60;99.90
13328;DHT22;6733;51.044;3.746;2023-02-01T15:24:58;9.60;99.90
13328;DHT22;6733;51.044;3.746;2023-02-01T15:27:26;9.50;99.90
13328;DHT22;6733;51.044;3.746;2023-02-01T15:29:53;9.60;99.90
13328;DHT22;6733;51.044;3.746;2023-02-01T15:32:34;9.50;99.90
13328;DHT22;6733;51.044;3.746;2023-02-01T15:35:01;9.50;99.90
13328;DHT22;6733;51.044;3.746;2023-02-01T15:37:28;9.50;99.90
13328;DHT22;6733;51.044;3.746;2023-02-01T15:40:23;9.40;99.90
13328;DHT22;6733;51.044;3.746;2023-02-01T15:42:55;9.40;99.90
13328;DHT22;6733;51.044;3.746;2023-02-01T15:45:31;9.30;99.90
13328;DHT22;6733;51.044;3.746;2023-02-01T15:47:59;9.30;99.90
13328;DHT22;6733;51.044;3.746;2023-02-01T15:50:28;9.30;99.90
13328;DHT22;6733;51.044;3.746;2023-02-01T15:52:55;9.30;99.90
13328;DHT22;6733;51.044;3.746;2023-02-01T15:55:41;9.30;99.90
13328;DHT22;6733;51.044;3.746;2023-02-01T15:58:13;9.20;99.90
13328;DHT22;6733;51.044;3.746;2023-02-01T16:00:46;9.20;99.90
13328;DHT22;6733;51.044;3.746;2023-02-01T16:03:33;9.20;99.90
13328;DHT22;6733;51.044;3.746;2023-02-01T16:06:04;9.30;99.90
13328;DHT22;6733;51.044;3.746;2023-02-01T16:08:31;9.20;99.90
13328;DHT22;6733;51.044;3.746;2023-02-01T16:13:34;9.20;99.90
13328;DHT22;6733;51.044;3.746;2023-02-01T16:16:00;9.20;99.90
13328;DHT22;6733;51.044;3.746;2023-02-01T16:18:26;9.20;99.90
13328;DHT22;6733;51.044;3.746;2023-02-01T16:20:52;9.20;99.90
13328;DHT22;6733;51.044;3.746;2023-02-01T16:23:18;9.20;99.90
13328;DHT22;6733;51.044;3.746;2023-02-01T16:25:46;9.10;99.90
13328;DHT22;6733;51.044;3.746;2023-02-01T16:28:12;9.10;99.90
13328;DHT22;6733;51.044;3.746;2023-02-01T16:30:39;9.00;99.90
13328;DHT22;6733;51.044;3.746;2023-02-01T16:33:05;9.00;99.90
13328;DHT22;6733;51.044;3.746;2023-02-01T16:35:37;9.00;99.90
13328;DHT22;6733;51.044;3.746;2023-02-01T16:38:05;9.00;99.90
13328;DHT22;6733;51.044;3.746;2023-02-01T16:40:40;9.00;99.90
13328;DHT22;6733;51.044;3.746;2023-02-01T16:43:17;8.90;99.90
13328;DHT22;6733;51.044;3.746;2023-02-01T16:45:45;8.90;99.90
13328;DHT22;6733;51.044;3.746;2023-02-01T16:48:33;8.90;99.90
13328;DHT22;6733;51.044;3.746;2023-02-01T16:51:08;8.90;99.90
13328;DHT22;6733;51.044;3.746;2023-02-01T16:53:35;8.90;99.90
13328;DHT22;6733;51.044;3.746;2023-02-01T16:56:01;8.90;99.90
13328;DHT22;6733;51.044;3.746;2023-02-01T16:58:30;8.90;99.90
13328;DHT22;6733;51.044;3.746;2023-02-01T17:00:56;8.90;99.90
13328;DHT22;6733;51.044;3.746;2023-02-01T17:03:22;8.90;99.90
13328;DHT22;6733;51.044;3.746;2023-02-01T17:05:51;9.00;99.90
13328;DHT22;6733;51.044;3.746;2023-02-01T17:08:34;9.00;99.90
13328;DHT22;6733;51.044;3.746;2023-02-01T17:11:01;9.10;99.90
13328;DHT22;6733;51.044;3.746;2023-02-01T17:13:27;9.10;99.90
13328;DHT22;6733;51.044;3.746;2023-02-01T17:16:05;9.10;99.90
13328;DHT22;6733;51.044;3.746;2023-02-01T17:18:33;9.20;99.90
13328;DHT22;6733;51.044;3.746;2023-02-01T17:21:02;9.20;99.90
13328;DHT22;6733;51.044;3.746;2023-02-01T17:23:30;9.30;99.90
13328;DHT22;6733;51.044;3.746;2023-02-01T17:25:57;9.30;99.90
13328;DHT22;6733;51.044;3.746;2023-02-01T17:28:23;9.40;99.90
13328;DHT22;6733;51.044;3.746;2023-02-01T17:30:50;9.40;99.90
13328;DHT22;6733;51.044;3.746;2023-02-01T17:33:28;9.40;99.90
13328;DHT22;6733;51.044;3.746;2023-02-01T17:35:56;9.40;99.90
13328;DHT22;6733;51.044;3.746;2023-02-01T17:38:26;9.40;99.90
13328;DHT22;6733;51.044;3.746;2023-02-01T17:40:52;9.40;99.90
13328;DHT22;6733;51.044;3.746;2023-02-01T17:43:23;9.40;99.90
13328;DHT22;6733;51.044;3.746;2023-02-01T17:45:59;9.40;99.90
13328;DHT22;6733;51.044;3.746;2023-02-01T17:48:27;9.40;99.90
13328;DHT22;6733;51.044;3.746;2023-02-01T17:50:54;9.50;99.90
13328;DHT22;6733;51.044;3.746;2023-02-01T17:53:24;9.50;99.90
13328;DHT22;6733;51.044;3.746;2023-02-01T17:55:52;9.50;99.90
13328;DHT22;6733;51.044;3.746;2023-02-01T17:58:18;9.50;99.90
13328;DHT22;6733;51.044;3.746;2023-02-01T18:00:47;9.50;99.90
13328;DHT22;6733;51.044;3.746;2023-02-01T18:03:25;9.50;99.90
13328;DHT22;6733;51.044;3.746;2023-02-01T18:05:53;9.60;99.90
13328;DHT22;6733;51.044;3.746;2023-02-01T18:08:21;9.50;99.90
13328;DHT22;6733;51.044;3.746;2023-02-01T18:10:54;9.50;99.90
13328;DHT22;6733;51.044;3.746;2023-02-01T18:13:21;9.50;99.90
13328;DHT22;6733;51.044;3.746;2023-02-01T18:15:47;9.50;99.90
13328;DHT22;6733;51.044;3.746;2023-02-01T18:18:14;9.50;99.90
13328;DHT22;6733;51.044;3.746;2023-02-01T18:20:42;9.60;99.90
13328;DHT22;6733;51.044;3.746;2023-02-01T18:23:21;9.50;99.90
13328;DHT22;6733;51.044;3.746;2023-02-01T18:25:49;9.50;99.90
13328;DHT22;6733;51.044;3.746;2023-02-01T18:28:17;9.50;99.90
13328;DHT22;6733;51.044;3.746;2023-02-01T18:30:45;9.50;99.90
13328;DHT22;6733;51.044;3.746;2023-02-01T18:33:14;9.40;99.90
13328;DHT22;6733;51.044;3.746;2023-02-01T18:35:41;9.40;99.90
13328;DHT22;6733;51.044;3.746;2023-02-01T18:38:08;9.50;99.90
13328;DHT22;6733;51.044;3.746;2023-02-01T18:40:55;9.40;99.90
13328;DHT22;6733;51.044;3.746;2023-02-01T18:43:25;9.40;99.90
13328;DHT22;6733;51.044;3.746;2023-02-01T18:45:52;9.40;99.90
13328;DHT22;6733;51.044;3.746;2023-02-01T18:48:19;9.40;99.90